sensor_id;sensor_type;location;lat;lon;timestamp;pressure;altitude;pressure_sealevel;temperature;humidity
19594;BME280;9944;48.240;16.478;2023-02-23T00:01:12;99615.28;;;5.69;71.86
19594;BME280;9944;48.240;16.478;2023-02-23T00:05:16;99604.78;;;5.66;72.00
19594;BME280;9944;48.240;16.478;2023-02-23T00:09:20;99610.88;;;5.65;71.84
19594;BME280;9944;48.240;16.478;2023-02-23T00:13:26;99599.53;;;5.64;71.88
19594;BME280;9944;48.240;16.478;2023-02-23T00:17:31;99606.50;;;5.62;71.81
19594;BME280;9944;48.240;16.478;2023-02-23T00:21:37;99606.44;;;5.59;71.88
19594;BME280;9944;48.240;16.478;2023-02-23T00:25:42;99602.00;;;5.52;71.46
19594;BME280;9944;48.240;16.478;2023-02-23T00:29:48;99603.63;;;5.45;71.75
19594;BME280;9944;48.240;16.478;2023-02-23T00:33:53;99603.59;;;5.42;71.67
19594;BME280;9944;48.240;16.478;2023-02-23T00:37:57;99593.91;;;5.37;71.59
19594;BME280;9944;48.240;16.478;2023-02-23T00:42:00;99599.97;;;5.34;71.62
19594;BME280;9944;48.240;16.478;2023-02-23T00:46:05;99597.34;;;5.32;71.51
19594;BME280;9944;48.240;16.478;2023-02-23T00:50:11;99593.78;;;5.29;71.83
19594;BME280;9944;48.240;16.478;2023-02-23T00:54:15;99599.03;;;5.29;71.78
19594;BME280;9944;48.240;16.478;2023-02-23T00:58:19;99598.13;;;5.27;71.67
19594;BME280;9944;48.240;16.478;2023-02-23T01:02:22;99593.72;;;5.23;71.40
19594;BME280;9944;48.240;16.478;2023-02-23T01:06:27;99601.47;;;5.16;71.28
19594;BME280;9944;48.240;16.478;2023-02-23T01:10:31;99596.22;;;5.13;71.10
19594;BME280;9944;48.240;16.478;2023-02-23T01:14:35;99596.16;;;5.10;71.33
19594;BME280;9944;48.240;16.478;2023-02-23T01:18:40;99596.94;;;5.06;71.43
19594;BME280;9944;48.240;16.478;2023-02-23T01:22:45;99582.97;;;5.04;71.48
19594;BME280;9944;48.240;16.478;2023-02-23T01:26:49;99586.44;;;5.02;71.50
19594;BME280;9944;48.240;16.478;2023-02-23T01:30:54;99575.91;;;4.98;71.45
19594;BME280;9944;48.240;16.478;2023-02-23T01:34:57;99579.38;;;4.97;71.69
19594;BME280;9944;48.240;16.478;2023-02-23T01:39:02;99575.78;;;4.91;71.96
19594;BME280;9944;48.240;16.478;2023-02-23T01:43:13;99582.72;;;4.86;72.11
19594;BME280;9944;48.240;16.478;2023-02-23T01:47:16;99564.28;;;4.79;72.30
19594;BME280;9944;48.240;16.478;2023-02-23T01:51:23;99565.94;;;4.74;72.64
19594;BME280;9944;48.240;16.478;2023-02-23T01:55:28;99561.56;;;4.72;72.74
19594;BME280;9944;48.240;16.478;2023-02-23T01:59:38;99565.00;;;4.69;73.11
19594;BME280;9944;48.240;16.478;2023-02-23T02:03:44;99559.69;;;4.63;72.98
19594;BME280;9944;48.240;16.478;2023-02-23T02:07:50;99564.84;;;4.58;73.15
19594;BME280;9944;48.240;16.478;2023-02-23T02:12:01;99563.91;;;4.55;73.19
19594;BME280;9944;48.240;16.478;2023-02-23T02:21:29;99557.66;;;4.47;73.05
19594;BME280;9944;48.240;16.478;2023-02-23T02:25:49;99549.75;;;4.44;72.91
19594;BME280;9944;48.240;16.478;2023-02-23T02:30:26;99549.69;;;4.40;72.74
19594;BME280;9944;48.240;16.478;2023-02-23T02:35:00;99548.75;;;4.37;72.61
19594;BME280;9944;48.240;16.478;2023-02-23T02:39:14;99556.59;;;4.34;72.59
19594;BME280;9944;48.240;16.478;2023-02-23T02:43:32;99551.25;;;4.29;72.51
19594;BME280;9944;48.240;16.478;2023-02-23T02:47:45;99552.97;;;4.27;72.70
19594;BME280;9944;48.240;16.478;2023-02-23T02:51:55;99553.75;;;4.23;72.60
19594;BME280;9944;48.240;16.478;2023-02-23T02:56:02;99559.78;;;4.19;72.63
19594;BME280;9944;48.240;16.478;2023-02-23T03:00:16;99559.72;;;4.16;72.61
19594;BME280;9944;48.240;16.478;2023-02-23T03:04:37;99552.69;;;4.12;72.43
19594;BME280;9944;48.240;16.478;2023-02-23T03:09:04;99559.63;;;4.10;72.62
19594;BME280;9944;48.240;16.478;2023-02-23T03:13:35;99563.94;;;4.08;72.70
19594;BME280;9944;48.240;16.478;2023-02-23T03:18:12;99561.34;;;4.08;72.70
19594;BME280;9944;48.240;16.478;2023-02-23T03:22:39;99574.34;;;4.05;72.80
19594;BME280;9944;48.240;16.478;2023-02-23T03:27:13;99569.06;;;4.03;72.61
19594;BME280;9944;48.240;16.478;2023-02-23T03:31:46;99582.09;;;4.01;72.70
19594;BME280;9944;48.240;16.478;2023-02-23T03:36:13;99576.88;;;4.01;72.73
19594;BME280;9944;48.240;16.478;2023-02-23T03:40:40;99569.88;;;4.00;72.75
19594;BME280;9944;48.240;16.478;2023-02-23T03:45:06;99577.72;;;4.00;72.71
19594;BME280;9944;48.240;16.478;2023-02-23T03:49:32;99582.91;;;3.97;72.71
19594;BME280;9944;48.240;16.478;2023-02-23T03:53:58;99585.41;;;3.94;72.77
19594;BME280;9944;48.240;16.478;2023-02-23T03:58:26;99584.53;;;3.94;72.88
19594;BME280;9944;48.240;16.478;2023-02-23T04:02:49;99591.44;;;3.92;72.83
19594;BME280;9944;48.240;16.478;2023-02-23T04:07:14;99595.78;;;3.91;73.22
19594;BME280;9944;48.240;16.478;2023-02-23T04:11:40;99592.28;;;3.89;73.14
19594;BME280;9944;48.240;16.478;2023-02-23T04:16:04;99588.78;;;3.90;73.21
19594;BME280;9944;48.240;16.478;2023-02-23T04:20:09;99592.34;;;3.92;73.44
19594;BME280;9944;48.240;16.478;2023-02-23T04:24:14;99593.25;;;3.94;73.49
19594;BME280;9944;48.240;16.478;2023-02-23T04:28:17;99594.19;;;3.96;73.66
19594;BME280;9944;48.240;16.478;2023-02-23T04:32:20;99594.25;;;3.99;73.85
19594;BME280;9944;48.240;16.478;2023-02-23T04:36:23;99592.53;;;4.01;74.08
19594;BME280;9944;48.240;16.478;2023-02-23T04:40:29;99602.16;;;4.02;74.04
19594;BME280;9944;48.240;16.478;2023-02-23T04:44:32;99597.84;;;4.05;74.19
19594;BME280;9944;48.240;16.478;2023-02-23T04:48:35;99601.34;;;4.07;74.31
19594;BME280;9944;48.240;16.478;2023-02-23T04:52:38;99596.13;;;4.07;74.29
19594;BME280;9944;48.240;16.478;2023-02-23T04:56:43;99602.16;;;4.04;74.39
19594;BME280;9944;48.240;16.478;2023-02-23T05:00:46;99602.16;;;4.04;74.45
19594;BME280;9944;48.240;16.478;2023-02-23T05:04:49;99599.53;;;4.04;74.64
19594;BME280;9944;48.240;16.478;2023-02-23T05:08:52;99592.63;;;4.05;74.74
19594;BME280;9944;48.240;16.478;2023-02-23T05:12:56;99601.34;;;4.07;74.86
19594;BME280;9944;48.240;16.478;2023-02-23T05:17:02;99604.81;;;4.06;74.82
19594;BME280;9944;48.240;16.478;2023-02-23T05:21:06;99598.72;;;4.05;74.49
19594;BME280;9944;48.240;16.478;2023-02-23T05:25:10;99595.22;;;4.05;74.94
19594;BME280;9944;48.240;16.478;2023-02-23T05:29:15;99601.28;;;4.03;75.09
19594;BME280;9944;48.240;16.478;2023-02-23T05:33:18;99603.06;;;4.05;75.22
19594;BME280;9944;48.240;16.478;2023-02-23T05:37:22;99603.06;;;4.05;75.10
19594;BME280;9944;48.240;16.478;2023-02-23T05:41:25;99597.78;;;4.01;74.99
19594;BME280;9944;48.240;16.478;2023-02-23T05:45:30;99604.69;;;3.99;75.20
19594;BME280;9944;48.240;16.478;2023-02-23T05:49:33;99608.16;;;3.98;75.12
19594;BME280;9944;48.240;16.478;2023-02-23T05:53:37;99617.69;;;3.96;75.15
19594;BME280;9944;48.240;16.478;2023-02-23T05:57:40;99621.97;;;3.94;75.22
19594;BME280;9944;48.240;16.478;2023-02-23T06:01:45;99618.50;;;3.94;75.28
19594;BME280;9944;48.240;16.478;2023-02-23T06:05:49;99623.69;;;3.92;75.10
19594;BME280;9944;48.240;16.478;2023-02-23T06:09:53;99632.34;;;3.91;75.30
19594;BME280;9944;48.240;16.478;2023-02-23T06:13:57;99640.22;;;3.93;75.14
19594;BME280;9944;48.240;16.478;2023-02-23T06:18:02;99634.13;;;3.92;75.47
19594;BME280;9944;48.240;16.478;2023-02-23T06:22:05;99648.97;;;3.95;75.50
19594;BME280;9944;48.240;16.478;2023-02-23T06:26:09;99656.91;;;3.98;75.80
19594;BME280;9944;48.240;16.478;2023-02-23T06:30:12;99661.31;;;4.02;75.93
19594;BME280;9944;48.240;16.478;2023-02-23T06:34:17;99655.38;;;4.08;76.12
19594;BME280;9944;48.240;16.478;2023-02-23T06:38:21;99658.94;;;4.13;76.29
19594;BME280;9944;48.240;16.478;2023-02-23T06:42:24;99668.66;;;4.20;76.52
19594;BME280;9944;48.240;16.478;2023-02-23T06:46:27;99667.94;;;4.27;77.08
19594;BME280;9944;48.240;16.478;2023-02-23T06:50:32;99666.28;;;4.32;77.35
19594;BME280;9944;48.240;16.478;2023-02-23T06:54:35;99663.75;;;4.37;77.70
19594;BME280;9944;48.240;16.478;2023-02-23T06:58:40;99668.22;;;4.43;77.61
19594;BME280;9944;48.240;16.478;2023-02-23T07:02:44;99668.25;;;4.46;77.88
19594;BME280;9944;48.240;16.478;2023-02-23T07:06:48;99675.34;;;4.50;78.28
19594;BME280;9944;48.240;16.478;2023-02-23T07:10:51;99663.22;;;4.55;78.38
19594;BME280;9944;48.240;16.478;2023-02-23T07:14:54;99672.88;;;4.59;78.59
19594;BME280;9944;48.240;16.478;2023-02-23T07:18:57;99677.34;;;4.63;78.62
19594;BME280;9944;48.240;16.478;2023-02-23T07:23:02;99670.47;;;4.71;78.96
19594;BME280;9944;48.240;16.478;2023-02-23T07:27:05;99670.66;;;4.81;79.25
19594;BME280;9944;48.240;16.478;2023-02-23T07:31:08;99677.78;;;4.91;79.57
19594;BME280;9944;48.240;16.478;2023-02-23T07:35:11;99674.41;;;4.95;79.32
19594;BME280;9944;48.240;16.478;2023-02-23T07:39:16;99677.13;;;5.03;79.32
19594;BME280;9944;48.240;16.478;2023-02-23T07:43:19;99675.53;;;5.11;79.53
19594;BME280;9944;48.240;16.478;2023-02-23T07:47:23;99672.16;;;5.20;79.66
19594;BME280;9944;48.240;16.478;2023-02-23T07:51:33;99681.06;;;5.29;79.61
19594;BME280;9944;48.240;16.478;2023-02-23T07:55:37;99692.50;;;5.36;79.41
19594;BME280;9944;48.240;16.478;2023-02-23T07:59:40;99696.09;;;5.44;79.74
19594;BME280;9944;48.240;16.478;2023-02-23T08:03:44;99690.16;;;5.54;79.59
19594;BME280;9944;48.240;16.478;2023-02-23T08:07:50;99694.66;;;5.65;79.30
19594;BME280;9944;48.240;16.478;2023-02-23T08:11:54;99697.44;;;5.76;79.47
19594;BME280;9944;48.240;16.478;2023-02-23T08:15:57;99700.28;;;5.92;79.65
19594;BME280;9944;48.240;16.478;2023-02-23T08:20:01;99697.00;;;6.07;79.88
19594;BME280;9944;48.240;16.478;2023-02-23T08:24:05;99693.72;;;6.25;79.09
19594;BME280;9944;48.240;16.478;2023-02-23T08:28:10;99691.19;;;6.33;79.03
19594;BME280;9944;48.240;16.478;2023-02-23T08:32:13;99693.97;;;6.44;78.51
19594;BME280;9944;48.240;16.478;2023-02-23T08:36:17;99700.19;;;6.54;78.35
19594;BME280;9944;48.240;16.478;2023-02-23T08:40:21;99703.81;;;6.65;77.63
19594;BME280;9944;48.240;16.478;2023-02-23T08:44:26;99693.34;;;6.70;77.86
19594;BME280;9944;48.240;16.478;2023-02-23T08:48:29;99690.84;;;6.77;77.15
19594;BME280;9944;48.240;16.478;2023-02-23T08:52:32;99690.03;;;6.84;77.13
19594;BME280;9944;48.240;16.478;2023-02-23T08:56:35;99690.13;;;6.97;77.13
19594;BME280;9944;48.240;16.478;2023-02-23T09:00:40;99691.97;;;7.05;76.56
19594;BME280;9944;48.240;16.478;2023-02-23T09:04:43;99685.88;;;7.13;76.57
19594;BME280;9944;48.240;16.478;2023-02-23T09:08:46;99687.72;;;7.18;76.41
19594;BME280;9944;48.240;16.478;2023-02-23T09:12:50;99683.34;;;7.25;76.05
19594;BME280;9944;48.240;16.478;2023-02-23T09:16:54;99685.19;;;7.31;75.59
19594;BME280;9944;48.240;16.478;2023-02-23T09:20:58;99694.84;;;7.36;75.82
19594;BME280;9944;48.240;16.478;2023-02-23T09:25:01;99690.53;;;7.49;75.81
19594;BME280;9944;48.240;16.478;2023-02-23T09:29:05;99695.00;;;7.61;75.78
19594;BME280;9944;48.240;16.478;2023-02-23T09:33:10;99687.19;;;7.72;75.53
19594;BME280;9944;48.240;16.478;2023-02-23T09:37:13;99696.00;;;7.80;75.55
19594;BME280;9944;48.240;16.478;2023-02-23T09:45:59;99695.22;;;7.95;74.93
19594;BME280;9944;48.240;16.478;2023-02-23T09:50:13;99696.16;;;8.08;74.81
19594;BME280;9944;48.240;16.478;2023-02-23T09:54:21;99686.56;;;8.17;74.50
19594;BME280;9944;48.240;16.478;2023-02-23T09:58:26;99684.84;;;8.29;74.15
19594;BME280;9944;48.240;16.478;2023-02-23T10:02:35;99683.16;;;8.40;74.02
19594;BME280;9944;48.240;16.478;2023-02-23T10:06:44;99681.44;;;8.54;73.94
19594;BME280;9944;48.240;16.478;2023-02-23T10:10:57;99673.59;;;8.67;73.57
19594;BME280;9944;48.240;16.478;2023-02-23T10:15:12;99677.13;;;8.75;72.82
19594;BME280;9944;48.240;16.478;2023-02-23T10:19:23;99677.13;;;8.90;72.26
19594;BME280;9944;48.240;16.478;2023-02-23T10:23:34;99679.75;;;8.97;72.02
19594;BME280;9944;48.240;16.478;2023-02-23T10:27:42;99678.88;;;9.07;72.02
19594;BME280;9944;48.240;16.478;2023-02-23T10:31:48;99678.03;;;9.20;71.67
19594;BME280;9944;48.240;16.478;2023-02-23T10:35:56;99670.97;;;9.31;71.50
19594;BME280;9944;48.240;16.478;2023-02-23T10:40:17;99666.59;;;9.47;70.94
19594;BME280;9944;48.240;16.478;2023-02-23T10:44:23;99665.69;;;9.65;70.78
19594;BME280;9944;48.240;16.478;2023-02-23T10:48:32;99664.75;;;9.82;70.16
19594;BME280;9944;48.240;16.478;2023-02-23T10:52:39;99655.09;;;9.96;69.31
19594;BME280;9944;48.240;16.478;2023-02-23T10:56:45;99648.84;;;10.08;68.34
19594;BME280;9944;48.240;16.478;2023-02-23T11:00:53;99638.25;;;10.23;68.49
19594;BME280;9944;48.240;16.478;2023-02-23T11:04:59;99636.44;;;10.35;67.94
19594;BME280;9944;48.240;16.478;2023-02-23T11:09:15;99637.22;;;10.48;67.41
19594;BME280;9944;48.240;16.478;2023-02-23T11:13:45;99630.16;;;10.56;66.71
19594;BME280;9944;48.240;16.478;2023-02-23T11:17:54;99628.34;;;10.64;66.51
19594;BME280;9944;48.240;16.478;2023-02-23T11:21:58;99623.88;;;10.72;66.15
19594;BME280;9944;48.240;16.478;2023-02-23T11:26:05;99608.84;;;10.80;66.15
19594;BME280;9944;48.240;16.478;2023-02-23T11:30:20;99607.06;;;10.82;65.84
19594;BME280;9944;48.240;16.478;2023-02-23T11:34:32;99615.00;;;10.82;65.72
19594;BME280;9944;48.240;16.478;2023-02-23T11:38:35;99607.13;;;10.76;65.71
19594;BME280;9944;48.240;16.478;2023-02-23T11:42:49;99600.09;;;10.75;65.52
19594;BME280;9944;48.240;16.478;2023-02-23T11:46:55;99599.22;;;10.78;65.53
19594;BME280;9944;48.240;16.478;2023-02-23T11:51:00;99593.84;;;10.87;65.45
19594;BME280;9944;48.240;16.478;2023-02-23T11:55:06;99596.38;;;10.99;65.75
19594;BME280;9944;48.240;16.478;2023-02-23T11:59:15;99600.72;;;11.07;65.22
19594;BME280;9944;48.240;16.478;2023-02-23T12:03:23;99597.09;;;11.17;64.98
19594;BME280;9944;48.240;16.478;2023-02-23T12:07:35;99589.09;;;11.26;64.62
19594;BME280;9944;48.240;16.478;2023-02-23T12:11:45;99584.53;;;11.44;64.70
19594;BME280;9944;48.240;16.478;2023-02-23T12:15:52;99588.78;;;11.59;64.09
19594;BME280;9944;48.240;16.478;2023-02-23T12:20:04;99572.84;;;11.65;63.70
19594;BME280;9944;48.240;16.478;2023-02-23T12:24:17;99570.06;;;11.77;63.21
19594;BME280;9944;48.240;16.478;2023-02-23T12:28:25;99579.69;;;11.81;62.42
19594;BME280;9944;48.240;16.478;2023-02-23T12:32:40;99565.69;;;11.73;62.20
19594;BME280;9944;48.240;16.478;2023-02-23T12:36:51;99567.31;;;11.83;62.65
19594;BME280;9944;48.240;16.478;2023-02-23T12:41:02;99558.34;;;11.97;62.57
19594;BME280;9944;48.240;16.478;2023-02-23T12:45:14;99551.22;;;12.02;61.98
19594;BME280;9944;48.240;16.478;2023-02-23T12:49:25;99538.03;;;11.99;62.00
19594;BME280;9944;48.240;16.478;2023-02-23T12:53:38;99537.00;;;12.07;61.74
19594;BME280;9944;48.240;16.478;2023-02-23T12:57:47;99542.25;;;12.12;61.22
19594;BME280;9944;48.240;16.478;2023-02-23T13:01:56;99531.75;;;12.06;61.09
19594;BME280;9944;48.240;16.478;2023-02-23T13:06:05;99522.91;;;12.07;61.34
19594;BME280;9944;48.240;16.478;2023-02-23T13:10:21;99524.63;;;12.09;61.26
19594;BME280;9944;48.240;16.478;2023-02-23T13:14:29;99522.84;;;12.13;61.73
19594;BME280;9944;48.240;16.478;2023-02-23T13:18:40;99527.13;;;12.22;61.13
19594;BME280;9944;48.240;16.478;2023-02-23T13:22:48;99525.38;;;12.19;61.67
19594;BME280;9944;48.240;16.478;2023-02-23T13:26:58;99524.38;;;12.26;61.22
19594;BME280;9944;48.240;16.478;2023-02-23T13:31:03;99523.59;;;12.21;60.91
19594;BME280;9944;48.240;16.478;2023-02-23T13:35:12;99524.44;;;12.23;61.10
19594;BME280;9944;48.240;16.478;2023-02-23T13:39:45;99524.44;;;12.23;60.21
19594;BME280;9944;48.240;16.478;2023-02-23T13:43:56;99525.38;;;12.19;60.57
19594;BME280;9944;48.240;16.478;2023-02-23T13:48:05;99519.19;;;12.22;60.69
19594;BME280;9944;48.240;16.478;2023-02-23T13:52:21;99507.66;;;12.24;60.46
19594;BME280;9944;48.240;16.478;2023-02-23T13:56:27;99506.78;;;12.25;60.53
19594;BME280;9944;48.240;16.478;2023-02-23T14:00:32;99500.63;;;12.23;59.69
19594;BME280;9944;48.240;16.478;2023-02-23T14:04:36;99509.50;;;12.21;60.24
19594;BME280;9944;48.240;16.478;2023-02-23T14:08:45;99507.72;;;12.21;59.85
19594;BME280;9944;48.240;16.478;2023-02-23T14:13:06;99509.50;;;12.21;59.80
19594;BME280;9944;48.240;16.478;2023-02-23T14:21:57;99503.44;;;12.11;59.49
19594;BME280;9944;48.240;16.478;2023-02-23T14:26:13;99491.91;;;12.17;59.94
19594;BME280;9944;48.240;16.478;2023-02-23T14:30:21;99497.97;;;12.23;60.01
19594;BME280;9944;48.240;16.478;2023-02-23T14:34:46;99494.44;;;12.24;60.23
19594;BME280;9944;48.240;16.478;2023-02-23T14:38:57;99490.94;;;12.22;60.22
19594;BME280;9944;48.240;16.478;2023-02-23T14:43:02;99493.63;;;12.19;60.04
19594;BME280;9944;48.240;16.478;2023-02-23T14:47:09;99499.06;;;12.11;59.64
19594;BME280;9944;48.240;16.478;2023-02-23T14:51:19;99490.38;;;12.02;59.69
19594;BME280;9944;48.240;16.478;2023-02-23T14:55:26;99488.69;;;11.96;60.02
19594;BME280;9944;48.240;16.478;2023-02-23T14:59:36;99482.56;;;11.92;59.77
19594;BME280;9944;48.240;16.478;2023-02-23T15:03:40;99482.59;;;11.89;60.32
19594;BME280;9944;48.240;16.478;2023-02-23T15:07:43;99488.78;;;11.88;60.41
19594;BME280;9944;48.240;16.478;2023-02-23T15:11:49;99479.06;;;11.90;60.51
19594;BME280;9944;48.240;16.478;2023-02-23T15:15:55;99480.84;;;11.88;60.55
19594;BME280;9944;48.240;16.478;2023-02-23T15:20:03;99480.91;;;11.85;60.92
19594;BME280;9944;48.240;16.478;2023-02-23T15:24:21;99471.19;;;11.86;60.78
19594;BME280;9944;48.240;16.478;2023-02-23T15:28:28;99472.97;;;11.85;61.24
19594;BME280;9944;48.240;16.478;2023-02-23T15:32:36;99472.06;;;11.86;61.15
19594;BME280;9944;48.240;16.478;2023-02-23T15:36:40;99468.56;;;11.84;60.91
19594;BME280;9944;48.240;16.478;2023-02-23T15:40:49;99461.63;;;11.77;60.87
19594;BME280;9944;48.240;16.478;2023-02-23T15:45:00;99463.44;;;11.75;61.10
19594;BME280;9944;48.240;16.478;2023-02-23T15:49:04;99463.47;;;11.72;61.08
19594;BME280;9944;48.240;16.478;2023-02-23T15:53:28;99465.28;;;11.67;61.32
19594;BME280;9944;48.240;16.478;2023-02-23T15:57:40;99460.03;;;11.64;61.51
19594;BME280;9944;48.240;16.478;2023-02-23T16:01:46;99461.00;;;11.58;61.62
19594;BME280;9944;48.240;16.478;2023-02-23T16:05:55;99459.25;;;11.55;61.42
19594;BME280;9944;48.240;16.478;2023-02-23T16:10:04;99455.78;;;11.52;61.67
19594;BME280;9944;48.240;16.478;2023-02-23T16:14:14;99460.28;;;11.45;61.77
19594;BME280;9944;48.240;16.478;2023-02-23T16:18:24;99454.16;;;11.42;61.70
19594;BME280;9944;48.240;16.478;2023-02-23T16:22:30;99454.22;;;11.39;61.19
19594;BME280;9944;48.240;16.478;2023-02-23T16:26:38;99460.47;;;11.28;61.38
19594;BME280;9944;48.240;16.478;2023-02-23T16:30:49;99457.03;;;11.22;61.87
19594;BME280;9944;48.240;16.478;2023-02-23T16:34:59;99457.06;;;11.18;61.87
19594;BME280;9944;48.240;16.478;2023-02-23T16:39:05;99453.56;;;11.16;62.10
19594;BME280;9944;48.240;16.478;2023-02-23T16:43:12;99455.28;;;11.17;62.36
19594;BME280;9944;48.240;16.478;2023-02-23T16:47:32;99460.56;;;11.17;62.38
19594;BME280;9944;48.240;16.478;2023-02-23T16:51:38;99464.09;;;11.19;62.63
19594;BME280;9944;48.240;16.478;2023-02-23T16:55:45;99466.72;;;11.21;62.78
19594;BME280;9944;48.240;16.478;2023-02-23T16:59:51;99472.88;;;11.22;62.63
19594;BME280;9944;48.240;16.478;2023-02-23T17:03:55;99468.50;;;11.17;63.30
19594;BME280;9944;48.240;16.478;2023-02-23T17:08:01;99465.94;;;11.11;63.28
19594;BME280;9944;48.240;16.478;2023-02-23T17:12:06;99460.72;;;11.05;63.62
19594;BME280;9944;48.240;16.478;2023-02-23T17:16:11;99464.28;;;11.04;64.03
19594;BME280;9944;48.240;16.478;2023-02-23T17:20:15;99468.66;;;11.04;63.94
19594;BME280;9944;48.240;16.478;2023-02-23T17:24:23;99470.41;;;11.05;64.07
19594;BME280;9944;48.240;16.478;2023-02-23T17:28:26;99470.44;;;11.02;64.08
19594;BME280;9944;48.240;16.478;2023-02-23T17:32:29;99462.53;;;11.00;63.91
19594;BME280;9944;48.240;16.478;2023-02-23T17:36:33;99466.97;;;10.96;64.03
19594;BME280;9944;48.240;16.478;2023-02-23T17:40:38;99470.53;;;10.95;64.38
19594;BME280;9944;48.240;16.478;2023-02-23T17:44:42;99455.56;;;10.93;64.41
19594;BME280;9944;48.240;16.478;2023-02-23T17:48:45;99464.41;;;10.92;64.13
19594;BME280;9944;48.240;16.478;2023-02-23T17:52:49;99466.19;;;10.90;62.92
19594;BME280;9944;48.240;16.478;2023-02-23T17:56:54;99472.34;;;10.89;63.07
19594;BME280;9944;48.240;16.478;2023-02-23T18:00:59;99470.66;;;10.81;62.61
19594;BME280;9944;48.240;16.478;2023-02-23T18:05:02;99457.50;;;10.78;62.63
19594;BME280;9944;48.240;16.478;2023-02-23T18:09:06;99470.72;;;10.74;62.45
19594;BME280;9944;48.240;16.478;2023-02-23T18:13:10;99469.91;;;10.67;61.99
19594;BME280;9944;48.240;16.478;2023-02-23T18:17:15;99463.84;;;10.59;61.96
19594;BME280;9944;48.240;16.478;2023-02-23T18:21:20;99462.09;;;10.56;62.09
19594;BME280;9944;48.240;16.478;2023-02-23T18:25:25;99461.25;;;10.53;61.92
19594;BME280;9944;48.240;16.478;2023-02-23T18:29:33;99458.69;;;10.48;61.92
19594;BME280;9944;48.240;16.478;2023-02-23T18:33:36;99460.41;;;10.51;62.22
19594;BME280;9944;48.240;16.478;2023-02-23T18:37:39;99451.63;;;10.49;62.00
19594;BME280;9944;48.240;16.478;2023-02-23T18:41:42;99453.41;;;10.48;62.09
19594;BME280;9944;48.240;16.478;2023-02-23T18:45:48;99452.50;;;10.48;62.24
19594;BME280;9944;48.240;16.478;2023-02-23T18:49:51;99452.50;;;10.49;62.40
19594;BME280;9944;48.240;16.478;2023-02-23T18:53:54;99451.63;;;10.49;62.56
19594;BME280;9944;48.240;16.478;2023-02-23T18:57:57;99444.66;;;10.43;62.30
19594;BME280;9944;48.240;16.478;2023-02-23T19:02:02;99441.16;;;10.39;62.52
19594;BME280;9944;48.240;16.478;2023-02-23T19:06:07;99442.91;;;10.36;62.98
19594;BME280;9944;48.240;16.478;2023-02-23T19:10:12;99445.56;;;10.37;62.85
19594;BME280;9944;48.240;16.478;2023-02-23T19:14:18;99446.47;;;10.33;62.72
19594;BME280;9944;48.240;16.478;2023-02-23T19:18:25;99443.00;;;10.30;62.13
19594;BME280;9944;48.240;16.478;2023-02-23T19:22:28;99448.28;;;10.28;62.46
19594;BME280;9944;48.240;16.478;2023-02-23T19:26:33;99446.56;;;10.26;62.57
19594;BME280;9944;48.240;16.478;2023-02-23T19:30:37;99451.84;;;10.26;62.66
19594;BME280;9944;48.240;16.478;2023-02-23T19:34:47;99450.06;;;10.26;62.78
19594;BME280;9944;48.240;16.478;2023-02-23T19:38:50;99454.47;;;10.24;62.66
19594;BME280;9944;48.240;16.478;2023-02-23T19:42:53;99452.72;;;10.23;62.55
19594;BME280;9944;48.240;16.478;2023-02-23T19:46:56;99452.72;;;10.20;62.31
19594;BME280;9944;48.240;16.478;2023-02-23T19:51:01;99449.25;;;10.15;62.53
19594;BME280;9944;48.240;16.478;2023-02-23T19:55:05;99458.94;;;10.13;62.76
19594;BME280;9944;48.240;16.478;2023-02-23T19:59:09;99444.91;;;10.09;62.19
19594;BME280;9944;48.240;16.478;2023-02-23T20:03:12;99437.03;;;10.04;62.52
19594;BME280;9944;48.240;16.478;2023-02-23T20:07:21;99441.44;;;10.01;62.29
19594;BME280;9944;48.240;16.478;2023-02-23T20:11:26;99437.94;;;9.99;62.72
19594;BME280;9944;48.240;16.478;2023-02-23T20:15:29;99437.09;;;9.98;62.76
19594;BME280;9944;48.240;16.478;2023-02-23T20:19:32;99438.88;;;9.95;62.83
19594;BME280;9944;48.240;16.478;2023-02-23T20:23:36;99438.88;;;9.93;63.27
19594;BME280;9944;48.240;16.478;2023-02-23T20:27:41;99434.47;;;9.92;62.90
19594;BME280;9944;48.240;16.478;2023-02-23T20:31:46;99430.09;;;9.91;63.20
19594;BME280;9944;48.240;16.478;2023-02-23T20:35:51;99432.72;;;9.90;63.39
19594;BME280;9944;48.240;16.478;2023-02-23T20:39:56;99421.28;;;9.92;63.54
19594;BME280;9944;48.240;16.478;2023-02-23T20:43:59;99421.28;;;9.95;63.66
19594;BME280;9944;48.240;16.478;2023-02-23T20:48:02;99417.75;;;9.90;63.38
19594;BME280;9944;48.240;16.478;2023-02-23T20:52:05;99412.50;;;9.85;63.24
19594;BME280;9944;48.240;16.478;2023-02-23T20:56:10;99412.56;;;9.81;63.56
19594;BME280;9944;48.240;16.478;2023-02-23T21:00:15;99412.56;;;9.78;63.74
19594;BME280;9944;48.240;16.478;2023-02-23T21:04:29;99403.81;;;9.73;64.05
19594;BME280;9944;48.240;16.478;2023-02-23T21:08:36;99394.16;;;9.72;64.17
19594;BME280;9944;48.240;16.478;2023-02-23T21:12:42;99396.81;;;9.70;64.21
19594;BME280;9944;48.240;16.478;2023-02-23T21:16:45;99393.28;;;9.69;64.25
19594;BME280;9944;48.240;16.478;2023-02-23T21:20:48;99391.56;;;9.68;64.03
19594;BME280;9944;48.240;16.478;2023-02-23T21:24:51;99383.66;;;9.67;64.27
19594;BME280;9944;48.240;16.478;2023-02-23T21:28:55;99386.31;;;9.65;64.68
19594;BME280;9944;48.240;16.478;2023-02-23T21:32:58;99370.50;;;9.65;64.24
19594;BME280;9944;48.240;16.478;2023-02-23T21:37:04;99367.00;;;9.63;64.49
19594;BME280;9944;48.240;16.478;2023-02-23T21:41:09;99368.78;;;9.61;64.65
19594;BME280;9944;48.240;16.478;2023-02-23T21:45:14;99365.22;;;9.64;64.83
19594;BME280;9944;48.240;16.478;2023-02-23T21:49:18;99367.00;;;9.63;64.82
19594;BME280;9944;48.240;16.478;2023-02-23T21:53:21;99374.91;;;9.65;65.02
19594;BME280;9944;48.240;16.478;2023-02-23T21:57:24;99371.34;;;9.66;64.91
19594;BME280;9944;48.240;16.478;2023-02-23T22:01:31;99365.22;;;9.65;64.86
19594;BME280;9944;48.240;16.478;2023-02-23T22:05:35;99366.94;;;9.69;65.01
19594;BME280;9944;48.240;16.478;2023-02-23T22:09:38;99363.44;;;9.71;65.28
19594;BME280;9944;48.240;16.478;2023-02-23T22:13:42;99366.94;;;9.69;65.05
19594;BME280;9944;48.240;16.478;2023-02-23T22:17:46;99359.94;;;9.68;65.42